sensor_id;sensor_type;location;lat;lon;timestamp;P1;durP1;ratioP1;P2;durP2;ratioP2
5684;SDS011;2865;53.114;9.130;2023-07-02T00:01:29;5.60;;;2.90;;
5684;SDS011;2865;53.114;9.130;2023-07-02T00:03:55;4.93;;;2.63;;
5684;SDS011;2865;53.114;9.130;2023-07-02T00:06:20;4.33;;;2.70;;
5684;SDS011;2865;53.114;9.130;2023-07-02T00:08:46;9.87;;;2.83;;
5684;SDS011;2865;53.114;9.130;2023-07-02T00:11:11;6.13;;;3.17;;
5684;SDS011;2865;53.114;9.130;2023-07-02T00:13:38;4.50;;;2.90;;
5684;SDS011;2865;53.114;9.130;2023-07-02T00:16:04;12.50;;;2.73;;
5684;SDS011;2865;53.114;9.130;2023-07-02T00:18:29;5.23;;;2.70;;
5684;SDS011;2865;53.114;9.130;2023-07-02T00:20:55;6.23;;;3.27;;
5684;SDS011;2865;53.114;9.130;2023-07-02T00:23:20;4.13;;;2.80;;
5684;SDS011;2865;53.114;9.130;2023-07-02T00:25:45;10.83;;;3.83;;
5684;SDS011;2865;53.114;9.130;2023-07-02T00:28:11;7.50;;;3.10;;
5684;SDS011;2865;53.114;9.130;2023-07-02T00:30:36;4.50;;;3.23;;
5684;SDS011;2865;53.114;9.130;2023-07-02T00:33:02;3.83;;;2.37;;
5684;SDS011;2865;53.114;9.130;2023-07-02T00:35:28;3.50;;;2.80;;
5684;SDS011;2865;53.114;9.130;2023-07-02T00:37:54;4.90;;;3.13;;
5684;SDS011;2865;53.114;9.130;2023-07-02T00:40:19;5.60;;;2.60;;
5684;SDS011;2865;53.114;9.130;2023-07-02T00:42:46;4.90;;;3.27;;
5684;SDS011;2865;53.114;9.130;2023-07-02T00:45:11;8.13;;;3.50;;
5684;SDS011;2865;53.114;9.130;2023-07-02T00:47:36;6.10;;;2.77;;
5684;SDS011;2865;53.114;9.130;2023-07-02T00:50:02;5.37;;;3.37;;
5684;SDS011;2865;53.114;9.130;2023-07-02T00:52:28;5.53;;;3.07;;
5684;SDS011;2865;53.114;9.130;2023-07-02T00:54:54;3.80;;;2.73;;
5684;SDS011;2865;53.114;9.130;2023-07-02T00:57:19;8.73;;;3.53;;
5684;SDS011;2865;53.114;9.130;2023-07-02T00:59:45;3.20;;;2.60;;
5684;SDS011;2865;53.114;9.130;2023-07-02T01:02:10;3.87;;;2.90;;
5684;SDS011;2865;53.114;9.130;2023-07-02T01:04:35;4.23;;;3.37;;
5684;SDS011;2865;53.114;9.130;2023-07-02T01:07:02;3.80;;;2.83;;
5684;SDS011;2865;53.114;9.130;2023-07-02T01:09:28;3.97;;;2.80;;
5684;SDS011;2865;53.114;9.130;2023-07-02T01:11:54;5.20;;;3.17;;
5684;SDS011;2865;53.114;9.130;2023-07-02T01:14:30;5.23;;;3.10;;
5684;SDS011;2865;53.114;9.130;2023-07-02T01:16:58;5.47;;;3.17;;
5684;SDS011;2865;53.114;9.130;2023-07-02T01:22:01;6.43;;;3.40;;
5684;SDS011;2865;53.114;9.130;2023-07-02T01:24:26;7.30;;;3.70;;
5684;SDS011;2865;53.114;9.130;2023-07-02T01:26:51;6.30;;;2.80;;
5684;SDS011;2865;53.114;9.130;2023-07-02T01:29:18;4.00;;;2.90;;
5684;SDS011;2865;53.114;9.130;2023-07-02T01:31:42;4.17;;;3.30;;
5684;SDS011;2865;53.114;9.130;2023-07-02T01:34:08;3.10;;;2.80;;
5684;SDS011;2865;53.114;9.130;2023-07-02T01:36:34;6.20;;;3.37;;
5684;SDS011;2865;53.114;9.130;2023-07-02T01:38:59;4.03;;;3.43;;
5684;SDS011;2865;53.114;9.130;2023-07-02T01:41:25;3.67;;;3.10;;
5684;SDS011;2865;53.114;9.130;2023-07-02T01:43:50;5.00;;;3.40;;
5684;SDS011;2865;53.114;9.130;2023-07-02T01:46:15;5.60;;;3.30;;
5684;SDS011;2865;53.114;9.130;2023-07-02T01:48:41;6.60;;;3.70;;
5684;SDS011;2865;53.114;9.130;2023-07-02T01:51:06;9.87;;;3.90;;
5684;SDS011;2865;53.114;9.130;2023-07-02T01:53:31;3.67;;;2.80;;
5684;SDS011;2865;53.114;9.130;2023-07-02T01:55:57;9.43;;;3.27;;
5684;SDS011;2865;53.114;9.130;2023-07-02T01:58:22;4.87;;;2.93;;
5684;SDS011;2865;53.114;9.130;2023-07-02T02:00:47;5.97;;;3.23;;
5684;SDS011;2865;53.114;9.130;2023-07-02T02:03:13;5.27;;;3.40;;
5684;SDS011;2865;53.114;9.130;2023-07-02T02:05:39;3.43;;;3.13;;
5684;SDS011;2865;53.114;9.130;2023-07-02T02:08:04;4.80;;;2.70;;
5684;SDS011;2865;53.114;9.130;2023-07-02T02:10:29;7.80;;;3.30;;
5684;SDS011;2865;53.114;9.130;2023-07-02T02:12:55;8.80;;;3.40;;
5684;SDS011;2865;53.114;9.130;2023-07-02T02:15:20;4.87;;;3.60;;
5684;SDS011;2865;53.114;9.130;2023-07-02T02:17:46;7.73;;;4.07;;
5684;SDS011;2865;53.114;9.130;2023-07-02T02:20:11;6.00;;;3.87;;
5684;SDS011;2865;53.114;9.130;2023-07-02T02:22:37;9.10;;;3.67;;
5684;SDS011;2865;53.114;9.130;2023-07-02T02:25:02;5.03;;;3.20;;
5684;SDS011;2865;53.114;9.130;2023-07-02T02:27:28;5.53;;;3.10;;
5684;SDS011;2865;53.114;9.130;2023-07-02T02:29:53;7.80;;;4.30;;
5684;SDS011;2865;53.114;9.130;2023-07-02T02:32:19;7.30;;;3.23;;
5684;SDS011;2865;53.114;9.130;2023-07-02T02:34:44;8.30;;;5.07;;
5684;SDS011;2865;53.114;9.130;2023-07-02T02:37:10;7.10;;;3.50;;
5684;SDS011;2865;53.114;9.130;2023-07-02T02:39:35;7.67;;;4.10;;
5684;SDS011;2865;53.114;9.130;2023-07-02T02:42:01;7.70;;;3.73;;
5684;SDS011;2865;53.114;9.130;2023-07-02T02:44:26;8.63;;;4.23;;
5684;SDS011;2865;53.114;9.130;2023-07-02T02:46:51;8.30;;;4.20;;
5684;SDS011;2865;53.114;9.130;2023-07-02T02:49:17;4.33;;;3.40;;
5684;SDS011;2865;53.114;9.130;2023-07-02T02:51:43;6.63;;;3.37;;
5684;SDS011;2865;53.114;9.130;2023-07-02T02:54:08;10.37;;;4.13;;
5684;SDS011;2865;53.114;9.130;2023-07-02T02:56:33;13.00;;;4.40;;
5684;SDS011;2865;53.114;9.130;2023-07-02T02:58:59;8.97;;;4.03;;
5684;SDS011;2865;53.114;9.130;2023-07-02T03:01:24;18.93;;;3.57;;
5684;SDS011;2865;53.114;9.130;2023-07-02T03:03:49;6.90;;;4.20;;
5684;SDS011;2865;53.114;9.130;2023-07-02T03:06:15;6.73;;;3.77;;
5684;SDS011;2865;53.114;9.130;2023-07-02T03:08:40;10.80;;;4.67;;
5684;SDS011;2865;53.114;9.130;2023-07-02T03:11:06;6.30;;;5.20;;
5684;SDS011;2865;53.114;9.130;2023-07-02T03:13:31;5.57;;;3.53;;
5684;SDS011;2865;53.114;9.130;2023-07-02T03:15:56;15.10;;;5.33;;
5684;SDS011;2865;53.114;9.130;2023-07-02T03:18:21;7.10;;;4.10;;
5684;SDS011;2865;53.114;9.130;2023-07-02T03:20:47;11.57;;;4.10;;
5684;SDS011;2865;53.114;9.130;2023-07-02T03:23:12;5.83;;;4.23;;
5684;SDS011;2865;53.114;9.130;2023-07-02T03:25:38;10.10;;;4.57;;
5684;SDS011;2865;53.114;9.130;2023-07-02T03:28:03;5.10;;;3.77;;
5684;SDS011;2865;53.114;9.130;2023-07-02T03:30:29;7.00;;;4.47;;
5684;SDS011;2865;53.114;9.130;2023-07-02T03:32:54;8.10;;;4.73;;
5684;SDS011;2865;53.114;9.130;2023-07-02T03:35:19;12.33;;;5.43;;
5684;SDS011;2865;53.114;9.130;2023-07-02T03:37:45;9.43;;;4.00;;
5684;SDS011;2865;53.114;9.130;2023-07-02T03:40:10;10.50;;;4.60;;
5684;SDS011;2865;53.114;9.130;2023-07-02T03:42:36;6.03;;;5.03;;
5684;SDS011;2865;53.114;9.130;2023-07-02T03:45:02;12.77;;;4.97;;
5684;SDS011;2865;53.114;9.130;2023-07-02T03:47:28;6.80;;;3.97;;
5684;SDS011;2865;53.114;9.130;2023-07-02T03:49:54;14.90;;;5.47;;
5684;SDS011;2865;53.114;9.130;2023-07-02T03:52:20;5.33;;;4.17;;
5684;SDS011;2865;53.114;9.130;2023-07-02T03:54:45;18.33;;;4.70;;
5684;SDS011;2865;53.114;9.130;2023-07-02T03:57:10;7.63;;;5.00;;
5684;SDS011;2865;53.114;9.130;2023-07-02T03:59:36;8.47;;;4.93;;
5684;SDS011;2865;53.114;9.130;2023-07-02T04:02:01;10.60;;;4.27;;
5684;SDS011;2865;53.114;9.130;2023-07-02T04:04:26;5.30;;;4.50;;
5684;SDS011;2865;53.114;9.130;2023-07-02T04:06:52;9.83;;;4.50;;
5684;SDS011;2865;53.114;9.130;2023-07-02T04:09:17;12.87;;;5.07;;
5684;SDS011;2865;53.114;9.130;2023-07-02T04:11:43;9.63;;;5.43;;
5684;SDS011;2865;53.114;9.130;2023-07-02T04:14:08;15.17;;;5.47;;
5684;SDS011;2865;53.114;9.130;2023-07-02T04:16:33;7.50;;;4.60;;
5684;SDS011;2865;53.114;9.130;2023-07-02T04:19:00;11.83;;;5.10;;
5684;SDS011;2865;53.114;9.130;2023-07-02T04:21:25;6.10;;;4.60;;
5684;SDS011;2865;53.114;9.130;2023-07-02T04:23:50;10.33;;;4.87;;
5684;SDS011;2865;53.114;9.130;2023-07-02T04:26:17;11.80;;;5.60;;
5684;SDS011;2865;53.114;9.130;2023-07-02T04:28:43;13.10;;;5.40;;
5684;SDS011;2865;53.114;9.130;2023-07-02T04:31:08;12.50;;;5.40;;
5684;SDS011;2865;53.114;9.130;2023-07-02T04:33:33;8.73;;;5.60;;
5684;SDS011;2865;53.114;9.130;2023-07-02T04:35:59;9.07;;;4.70;;
5684;SDS011;2865;53.114;9.130;2023-07-02T04:38:24;9.67;;;4.70;;
5684;SDS011;2865;53.114;9.130;2023-07-02T04:40:49;23.00;;;6.20;;
5684;SDS011;2865;53.114;9.130;2023-07-02T04:43:15;8.03;;;5.87;;
5684;SDS011;2865;53.114;9.130;2023-07-02T04:45:40;9.67;;;4.93;;
5684;SDS011;2865;53.114;9.130;2023-07-02T04:48:06;13.60;;;5.20;;
5684;SDS011;2865;53.114;9.130;2023-07-02T04:50:31;11.40;;;5.60;;
5684;SDS011;2865;53.114;9.130;2023-07-02T04:52:57;11.67;;;6.40;;
5684;SDS011;2865;53.114;9.130;2023-07-02T04:55:22;13.13;;;6.40;;
5684;SDS011;2865;53.114;9.130;2023-07-02T04:57:47;14.33;;;6.20;;
5684;SDS011;2865;53.114;9.130;2023-07-02T05:00:14;15.70;;;6.33;;
5684;SDS011;2865;53.114;9.130;2023-07-02T05:02:40;12.60;;;5.70;;
5684;SDS011;2865;53.114;9.130;2023-07-02T05:05:06;12.10;;;6.40;;
5684;SDS011;2865;53.114;9.130;2023-07-02T05:07:32;13.37;;;5.60;;
5684;SDS011;2865;53.114;9.130;2023-07-02T05:09:58;7.93;;;4.93;;
5684;SDS011;2865;53.114;9.130;2023-07-02T05:12:23;22.13;;;6.03;;
5684;SDS011;2865;53.114;9.130;2023-07-02T05:14:49;12.17;;;5.80;;
5684;SDS011;2865;53.114;9.130;2023-07-02T05:17:14;22.00;;;7.07;;
5684;SDS011;2865;53.114;9.130;2023-07-02T05:19:40;11.40;;;5.87;;
5684;SDS011;2865;53.114;9.130;2023-07-02T05:22:05;18.83;;;5.50;;
5684;SDS011;2865;53.114;9.130;2023-07-02T05:24:30;14.97;;;5.67;;
5684;SDS011;2865;53.114;9.130;2023-07-02T05:26:56;14.30;;;5.97;;
5684;SDS011;2865;53.114;9.130;2023-07-02T05:29:21;17.70;;;6.30;;
5684;SDS011;2865;53.114;9.130;2023-07-02T05:31:47;22.73;;;5.03;;
5684;SDS011;2865;53.114;9.130;2023-07-02T05:34:12;22.23;;;6.63;;
5684;SDS011;2865;53.114;9.130;2023-07-02T05:36:37;15.70;;;5.80;;
5684;SDS011;2865;53.114;9.130;2023-07-02T05:39:03;13.50;;;6.47;;
5684;SDS011;2865;53.114;9.130;2023-07-02T05:41:28;13.13;;;7.00;;
5684;SDS011;2865;53.114;9.130;2023-07-02T05:43:53;23.83;;;7.07;;
5684;SDS011;2865;53.114;9.130;2023-07-02T05:46:19;17.60;;;6.73;;
5684;SDS011;2865;53.114;9.130;2023-07-02T05:48:45;16.50;;;6.27;;
5684;SDS011;2865;53.114;9.130;2023-07-02T05:51:10;18.80;;;6.93;;
5684;SDS011;2865;53.114;9.130;2023-07-02T05:53:36;15.97;;;6.03;;
5684;SDS011;2865;53.114;9.130;2023-07-02T05:56:01;17.37;;;6.13;;
5684;SDS011;2865;53.114;9.130;2023-07-02T05:58:26;14.87;;;7.30;;
5684;SDS011;2865;53.114;9.130;2023-07-02T06:00:51;11.20;;;6.80;;
5684;SDS011;2865;53.114;9.130;2023-07-02T06:03:17;22.13;;;6.53;;
5684;SDS011;2865;53.114;9.130;2023-07-02T06:05:46;14.53;;;6.10;;
5684;SDS011;2865;53.114;9.130;2023-07-02T06:08:12;18.73;;;6.13;;
5684;SDS011;2865;53.114;9.130;2023-07-02T06:10:38;17.00;;;6.40;;
5684;SDS011;2865;53.114;9.130;2023-07-02T06:13:03;16.43;;;6.77;;
5684;SDS011;2865;53.114;9.130;2023-07-02T06:15:28;19.50;;;6.67;;
5684;SDS011;2865;53.114;9.130;2023-07-02T06:17:54;18.53;;;7.37;;
5684;SDS011;2865;53.114;9.130;2023-07-02T06:20:19;22.87;;;6.87;;
5684;SDS011;2865;53.114;9.130;2023-07-02T06:22:44;16.63;;;7.30;;
5684;SDS011;2865;53.114;9.130;2023-07-02T06:25:10;13.97;;;6.40;;
5684;SDS011;2865;53.114;9.130;2023-07-02T06:27:35;13.67;;;6.53;;
5684;SDS011;2865;53.114;9.130;2023-07-02T06:30:01;14.53;;;7.47;;
5684;SDS011;2865;53.114;9.130;2023-07-02T06:32:26;16.20;;;6.30;;
5684;SDS011;2865;53.114;9.130;2023-07-02T06:34:51;12.77;;;7.00;;
5684;SDS011;2865;53.114;9.130;2023-07-02T06:37:17;19.33;;;7.43;;
5684;SDS011;2865;53.114;9.130;2023-07-02T06:39:42;16.80;;;6.40;;
5684;SDS011;2865;53.114;9.130;2023-07-02T06:42:07;16.93;;;6.57;;
5684;SDS011;2865;53.114;9.130;2023-07-02T06:44:33;13.60;;;6.83;;
5684;SDS011;2865;53.114;9.130;2023-07-02T06:46:58;16.70;;;6.40;;
5684;SDS011;2865;53.114;9.130;2023-07-02T06:49:23;14.57;;;5.80;;
5684;SDS011;2865;53.114;9.130;2023-07-02T06:51:50;16.40;;;6.77;;
5684;SDS011;2865;53.114;9.130;2023-07-02T06:54:15;16.77;;;6.60;;
5684;SDS011;2865;53.114;9.130;2023-07-02T06:56:41;17.07;;;6.73;;
5684;SDS011;2865;53.114;9.130;2023-07-02T06:59:06;20.67;;;6.40;;
5684;SDS011;2865;53.114;9.130;2023-07-02T07:01:32;13.30;;;5.70;;
5684;SDS011;2865;53.114;9.130;2023-07-02T07:03:57;14.70;;;6.37;;
5684;SDS011;2865;53.114;9.130;2023-07-02T07:06:22;21.30;;;8.83;;
5684;SDS011;2865;53.114;9.130;2023-07-02T07:08:48;14.50;;;6.23;;
5684;SDS011;2865;53.114;9.130;2023-07-02T07:11:13;17.70;;;6.67;;
5684;SDS011;2865;53.114;9.130;2023-07-02T07:13:39;14.97;;;6.27;;
5684;SDS011;2865;53.114;9.130;2023-07-02T07:16:04;15.50;;;6.33;;
5684;SDS011;2865;53.114;9.130;2023-07-02T07:18:29;13.27;;;6.40;;
5684;SDS011;2865;53.114;9.130;2023-07-02T07:20:55;12.97;;;6.60;;
5684;SDS011;2865;53.114;9.130;2023-07-02T07:23:20;15.80;;;6.27;;
5684;SDS011;2865;53.114;9.130;2023-07-02T07:25:46;13.20;;;6.27;;
5684;SDS011;2865;53.114;9.130;2023-07-02T07:28:11;12.97;;;5.87;;
5684;SDS011;2865;53.114;9.130;2023-07-02T07:30:37;14.73;;;5.50;;
5684;SDS011;2865;53.114;9.130;2023-07-02T07:33:02;17.03;;;6.70;;
5684;SDS011;2865;53.114;9.130;2023-07-02T07:35:27;18.57;;;6.10;;
5684;SDS011;2865;53.114;9.130;2023-07-02T07:37:53;15.83;;;6.07;;
5684;SDS011;2865;53.114;9.130;2023-07-02T07:40:18;12.63;;;5.60;;
5684;SDS011;2865;53.114;9.130;2023-07-02T07:42:44;16.13;;;6.60;;
5684;SDS011;2865;53.114;9.130;2023-07-02T07:45:09;13.00;;;6.33;;
5684;SDS011;2865;53.114;9.130;2023-07-02T07:47:36;17.20;;;5.70;;
5684;SDS011;2865;53.114;9.130;2023-07-02T07:50:03;15.30;;;6.23;;
5684;SDS011;2865;53.114;9.130;2023-07-02T07:52:29;10.60;;;4.90;;
5684;SDS011;2865;53.114;9.130;2023-07-02T07:54:54;12.40;;;5.30;;
5684;SDS011;2865;53.114;9.130;2023-07-02T07:57:19;13.23;;;5.93;;
5684;SDS011;2865;53.114;9.130;2023-07-02T07:59:45;14.87;;;5.67;;
5684;SDS011;2865;53.114;9.130;2023-07-02T08:02:10;12.50;;;4.73;;
5684;SDS011;2865;53.114;9.130;2023-07-02T08:04:36;15.90;;;5.20;;
5684;SDS011;2865;53.114;9.130;2023-07-02T08:07:02;13.63;;;5.50;;
5684;SDS011;2865;53.114;9.130;2023-07-02T08:09:28;10.70;;;5.63;;
5684;SDS011;2865;53.114;9.130;2023-07-02T08:11:53;22.13;;;5.13;;
5684;SDS011;2865;53.114;9.130;2023-07-02T08:14:18;12.70;;;5.63;;
5684;SDS011;2865;53.114;9.130;2023-07-02T08:16:44;11.10;;;4.90;;
5684;SDS011;2865;53.114;9.130;2023-07-02T08:19:10;14.70;;;5.47;;
5684;SDS011;2865;53.114;9.130;2023-07-02T08:21:35;13.60;;;5.10;;
5684;SDS011;2865;53.114;9.130;2023-07-02T08:24:01;12.97;;;5.30;;
5684;SDS011;2865;53.114;9.130;2023-07-02T08:26:26;8.63;;;4.30;;
5684;SDS011;2865;53.114;9.130;2023-07-02T08:28:52;14.13;;;4.87;;
5684;SDS011;2865;53.114;9.130;2023-07-02T08:31:17;9.53;;;4.63;;
5684;SDS011;2865;53.114;9.130;2023-07-02T08:33:42;11.47;;;4.40;;
5684;SDS011;2865;53.114;9.130;2023-07-02T08:36:09;9.10;;;5.20;;
5684;SDS011;2865;53.114;9.130;2023-07-02T08:38:35;6.27;;;4.00;;
5684;SDS011;2865;53.114;9.130;2023-07-02T08:41:00;11.83;;;4.33;;
5684;SDS011;2865;53.114;9.130;2023-07-02T08:43:26;14.37;;;5.70;;
5684;SDS011;2865;53.114;9.130;2023-07-02T08:45:51;11.77;;;5.03;;
5684;SDS011;2865;53.114;9.130;2023-07-02T08:48:16;13.43;;;4.40;;
5684;SDS011;2865;53.114;9.130;2023-07-02T08:50:42;10.40;;;4.50;;
5684;SDS011;2865;53.114;9.130;2023-07-02T08:53:07;10.83;;;4.27;;
5684;SDS011;2865;53.114;9.130;2023-07-02T08:55:33;9.30;;;4.37;;
5684;SDS011;2865;53.114;9.130;2023-07-02T08:57:58;11.20;;;4.40;;
5684;SDS011;2865;53.114;9.130;2023-07-02T09:00:23;9.83;;;4.27;;
5684;SDS011;2865;53.114;9.130;2023-07-02T09:02:49;10.63;;;4.07;;
5684;SDS011;2865;53.114;9.130;2023-07-02T09:05:14;13.47;;;4.20;;
5684;SDS011;2865;53.114;9.130;2023-07-02T09:07:43;9.13;;;4.30;;
5684;SDS011;2865;53.114;9.130;2023-07-02T09:10:09;7.80;;;4.13;;
5684;SDS011;2865;53.114;9.130;2023-07-02T09:12:36;11.37;;;4.17;;
5684;SDS011;2865;53.114;9.130;2023-07-02T09:15:02;9.93;;;4.07;;
5684;SDS011;2865;53.114;9.130;2023-07-02T09:17:28;10.70;;;4.60;;
5684;SDS011;2865;53.114;9.130;2023-07-02T09:19:55;6.47;;;3.97;;
5684;SDS011;2865;53.114;9.130;2023-07-02T09:22:20;12.87;;;5.10;;
5684;SDS011;2865;53.114;9.130;2023-07-02T09:24:52;11.70;;;4.20;;
5684;SDS011;2865;53.114;9.130;2023-07-02T09:27:18;13.80;;;4.87;;
5684;SDS011;2865;53.114;9.130;2023-07-02T09:29:43;9.50;;;4.87;;
5684;SDS011;2865;53.114;9.130;2023-07-02T09:32:08;12.23;;;5.37;;
5684;SDS011;2865;53.114;9.130;2023-07-02T09:34:34;12.60;;;4.57;;
5684;SDS011;2865;53.114;9.130;2023-07-02T09:37:00;22.57;;;5.97;;
5684;SDS011;2865;53.114;9.130;2023-07-02T09:39:25;13.07;;;7.13;;
5684;SDS011;2865;53.114;9.130;2023-07-02T09:41:50;10.30;;;4.70;;
5684;SDS011;2865;53.114;9.130;2023-07-02T09:44:16;12.43;;;4.63;;
5684;SDS011;2865;53.114;9.130;2023-07-02T09:46:42;7.47;;;4.20;;
5684;SDS011;2865;53.114;9.130;2023-07-02T09:49:06;10.17;;;5.07;;
5684;SDS011;2865;53.114;9.130;2023-07-02T09:51:32;12.63;;;4.60;;
5684;SDS011;2865;53.114;9.130;2023-07-02T09:53:58;11.43;;;4.70;;
5684;SDS011;2865;53.114;9.130;2023-07-02T09:56:23;19.63;;;3.87;;
5684;SDS011;2865;53.114;9.130;2023-07-02T09:58:49;10.33;;;4.07;;
5684;SDS011;2865;53.114;9.130;2023-07-02T10:01:14;9.93;;;4.10;;
5684;SDS011;2865;53.114;9.130;2023-07-02T10:03:40;11.27;;;5.23;;
5684;SDS011;2865;53.114;9.130;2023-07-02T10:06:05;9.67;;;4.43;;
5684;SDS011;2865;53.114;9.130;2023-07-02T10:08:30;8.00;;;4.90;;
5684;SDS011;2865;53.114;9.130;2023-07-02T10:13:33;10.90;;;4.80;;
5684;SDS011;2865;53.114;9.130;2023-07-02T10:16:01;8.37;;;3.63;;
5684;SDS011;2865;53.114;9.130;2023-07-02T10:18:29;12.83;;;4.20;;
5684;SDS011;2865;53.114;9.130;2023-07-02T10:20:54;8.87;;;4.60;;
5684;SDS011;2865;53.114;9.130;2023-07-02T10:23:19;8.83;;;4.77;;
5684;SDS011;2865;53.114;9.130;2023-07-02T10:25:45;14.90;;;4.77;;
5684;SDS011;2865;53.114;9.130;2023-07-02T10:28:13;7.67;;;4.20;;
5684;SDS011;2865;53.114;9.130;2023-07-02T10:30:39;8.60;;;4.30;;
5684;SDS011;2865;53.114;9.130;2023-07-02T10:33:11;8.07;;;3.33;;
5684;SDS011;2865;53.114;9.130;2023-07-02T10:35:37;8.40;;;3.43;;
5684;SDS011;2865;53.114;9.130;2023-07-02T10:38:02;7.40;;;3.20;;
5684;SDS011;2865;53.114;9.130;2023-07-02T10:40:28;4.83;;;3.40;;
5684;SDS011;2865;53.114;9.130;2023-07-02T10:42:53;6.20;;;3.73;;
5684;SDS011;2865;53.114;9.130;2023-07-02T10:45:19;6.53;;;3.20;;
5684;SDS011;2865;53.114;9.130;2023-07-02T10:47:44;6.20;;;3.30;;
5684;SDS011;2865;53.114;9.130;2023-07-02T10:50:21;8.50;;;3.50;;
5684;SDS011;2865;53.114;9.130;2023-07-02T10:52:46;6.00;;;3.40;;
5684;SDS011;2865;53.114;9.130;2023-07-02T10:55:16;15.37;;;3.30;;
5684;SDS011;2865;53.114;9.130;2023-07-02T10:57:41;12.30;;;3.80;;
5684;SDS011;2865;53.114;9.130;2023-07-02T11:00:07;7.70;;;3.47;;
5684;SDS011;2865;53.114;9.130;2023-07-02T11:02:34;10.60;;;3.67;;
5684;SDS011;2865;53.114;9.130;2023-07-02T11:04:59;6.13;;;3.03;;
5684;SDS011;2865;53.114;9.130;2023-07-02T11:07:24;8.50;;;2.90;;
5684;SDS011;2865;53.114;9.130;2023-07-02T11:09:50;7.00;;;3.30;;
5684;SDS011;2865;53.114;9.130;2023-07-02T11:12:15;8.30;;;2.70;;
5684;SDS011;2865;53.114;9.130;2023-07-02T11:14:40;7.47;;;3.80;;
5684;SDS011;2865;53.114;9.130;2023-07-02T11:17:06;12.00;;;3.60;;
5684;SDS011;2865;53.114;9.130;2023-07-02T11:19:32;5.37;;;2.27;;
5684;SDS011;2865;53.114;9.130;2023-07-02T11:21:57;8.50;;;2.50;;
5684;SDS011;2865;53.114;9.130;2023-07-02T11:24:27;6.90;;;2.73;;
5684;SDS011;2865;53.114;9.130;2023-07-02T11:26:52;5.87;;;3.00;;
5684;SDS011;2865;53.114;9.130;2023-07-02T11:29:18;6.63;;;3.20;;
5684;SDS011;2865;53.114;9.130;2023-07-02T11:31:43;3.50;;;2.53;;
5684;SDS011;2865;53.114;9.130;2023-07-02T11:34:12;5.57;;;2.87;;
5684;SDS011;2865;53.114;9.130;2023-07-02T11:36:40;5.17;;;2.63;;
5684;SDS011;2865;53.114;9.130;2023-07-02T11:39:05;7.50;;;2.73;;
5684;SDS011;2865;53.114;9.130;2023-07-02T11:41:36;11.03;;;2.80;;
5684;SDS011;2865;53.114;9.130;2023-07-02T11:44:02;4.37;;;2.40;;
5684;SDS011;2865;53.114;9.130;2023-07-02T11:46:28;5.07;;;2.77;;
5684;SDS011;2865;53.114;9.130;2023-07-02T11:48:54;8.03;;;2.90;;
5684;SDS011;2865;53.114;9.130;2023-07-02T11:51:21;5.60;;;2.80;;
5684;SDS011;2865;53.114;9.130;2023-07-02T11:53:46;8.27;;;2.90;;
5684;SDS011;2865;53.114;9.130;2023-07-02T11:56:11;6.07;;;3.17;;
5684;SDS011;2865;53.114;9.130;2023-07-02T11:58:36;4.90;;;2.10;;
5684;SDS011;2865;53.114;9.130;2023-07-02T12:01:02;11.47;;;3.10;;
5684;SDS011;2865;53.114;9.130;2023-07-02T12:03:27;6.13;;;3.70;;
5684;SDS011;2865;53.114;9.130;2023-07-02T12:05:53;6.70;;;2.53;;
5684;SDS011;2865;53.114;9.130;2023-07-02T12:08:18;6.40;;;2.30;;
5684;SDS011;2865;53.114;9.130;2023-07-02T12:10:43;6.07;;;3.13;;
5684;SDS011;2865;53.114;9.130;2023-07-02T12:13:10;7.67;;;3.23;;
5684;SDS011;2865;53.114;9.130;2023-07-02T12:15:35;5.57;;;3.30;;
5684;SDS011;2865;53.114;9.130;2023-07-02T12:18:00;5.30;;;2.57;;
5684;SDS011;2865;53.114;9.130;2023-07-02T12:20:26;3.07;;;2.03;;
5684;SDS011;2865;53.114;9.130;2023-07-02T12:22:51;4.67;;;2.57;;
5684;SDS011;2865;53.114;9.130;2023-07-02T12:25:16;4.50;;;2.43;;
5684;SDS011;2865;53.114;9.130;2023-07-02T12:27:42;4.63;;;1.87;;
5684;SDS011;2865;53.114;9.130;2023-07-02T12:30:07;4.83;;;2.20;;
5684;SDS011;2865;53.114;9.130;2023-07-02T12:32:34;4.07;;;2.50;;
5684;SDS011;2865;53.114;9.130;2023-07-02T12:34:59;10.60;;;2.70;;
5684;SDS011;2865;53.114;9.130;2023-07-02T12:37:24;3.87;;;2.30;;
5684;SDS011;2865;53.114;9.130;2023-07-02T12:39:50;5.20;;;2.10;;
5684;SDS011;2865;53.114;9.130;2023-07-02T12:42:15;7.07;;;2.70;;
5684;SDS011;2865;53.114;9.130;2023-07-02T12:44:41;6.13;;;2.67;;
5684;SDS011;2865;53.114;9.130;2023-07-02T12:47:06;7.70;;;2.57;;
5684;SDS011;2865;53.114;9.130;2023-07-02T12:49:31;7.83;;;3.13;;
5684;SDS011;2865;53.114;9.130;2023-07-02T12:51:57;7.10;;;2.90;;
5684;SDS011;2865;53.114;9.130;2023-07-02T12:54:22;19.37;;;4.07;;
5684;SDS011;2865;53.114;9.130;2023-07-02T12:56:48;6.77;;;3.30;;
5684;SDS011;2865;53.114;9.130;2023-07-02T12:59:14;6.50;;;3.53;;
5684;SDS011;2865;53.114;9.130;2023-07-02T13:01:38;3.73;;;2.57;;
5684;SDS011;2865;53.114;9.130;2023-07-02T13:04:04;10.40;;;3.57;;
5684;SDS011;2865;53.114;9.130;2023-07-02T13:06:29;6.70;;;2.57;;
5684;SDS011;2865;53.114;9.130;2023-07-02T13:08:54;6.70;;;3.00;;
5684;SDS011;2865;53.114;9.130;2023-07-02T13:11:20;8.43;;;3.27;;
5684;SDS011;2865;53.114;9.130;2023-07-02T13:13:45;3.47;;;2.57;;
5684;SDS011;2865;53.114;9.130;2023-07-02T13:16:11;5.00;;;2.80;;
5684;SDS011;2865;53.114;9.130;2023-07-02T13:18:37;5.70;;;2.70;;
5684;SDS011;2865;53.114;9.130;2023-07-02T13:21:02;6.73;;;3.40;;
5684;SDS011;2865;53.114;9.130;2023-07-02T13:23:27;14.90;;;3.60;;
5684;SDS011;2865;53.114;9.130;2023-07-02T13:25:53;6.80;;;2.77;;
5684;SDS011;2865;53.114;9.130;2023-07-02T13:28:18;5.87;;;2.70;;
5684;SDS011;2865;53.114;9.130;2023-07-02T13:30:44;8.00;;;3.10;;
5684;SDS011;2865;53.114;9.130;2023-07-02T13:33:09;6.17;;;2.70;;
5684;SDS011;2865;53.114;9.130;2023-07-02T13:35:34;6.83;;;2.70;;
5684;SDS011;2865;53.114;9.130;2023-07-02T13:38:00;11.07;;;2.83;;
5684;SDS011;2865;53.114;9.130;2023-07-02T13:40:25;9.40;;;3.03;;
5684;SDS011;2865;53.114;9.130;2023-07-02T13:42:51;6.20;;;2.77;;
5684;SDS011;2865;53.114;9.130;2023-07-02T13:45:16;8.07;;;3.07;;
5684;SDS011;2865;53.114;9.130;2023-07-02T13:47:41;6.27;;;2.47;;
5684;SDS011;2865;53.114;9.130;2023-07-02T13:50:07;5.20;;;3.07;;
5684;SDS011;2865;53.114;9.130;2023-07-02T13:52:33;4.30;;;2.40;;
5684;SDS011;2865;53.114;9.130;2023-07-02T13:54:58;6.10;;;2.93;;
5684;SDS011;2865;53.114;9.130;2023-07-02T13:57:24;6.10;;;2.80;;
5684;SDS011;2865;53.114;9.130;2023-07-02T13:59:49;5.60;;;2.73;;
5684;SDS011;2865;53.114;9.130;2023-07-02T14:02:14;4.57;;;2.70;;
5684;SDS011;2865;53.114;9.130;2023-07-02T14:04:40;4.03;;;2.40;;
5684;SDS011;2865;53.114;9.130;2023-07-02T14:07:05;6.17;;;3.23;;
5684;SDS011;2865;53.114;9.130;2023-07-02T14:09:31;5.33;;;2.83;;
5684;SDS011;2865;53.114;9.130;2023-07-02T14:11:56;6.47;;;2.50;;
5684;SDS011;2865;53.114;9.130;2023-07-02T14:14:22;7.00;;;2.50;;
5684;SDS011;2865;53.114;9.130;2023-07-02T14:16:47;7.20;;;3.47;;
5684;SDS011;2865;53.114;9.130;2023-07-02T14:19:13;4.80;;;3.00;;
5684;SDS011;2865;53.114;9.130;2023-07-02T14:21:38;6.07;;;2.83;;
5684;SDS011;2865;53.114;9.130;2023-07-02T14:24:04;3.53;;;2.33;;
5684;SDS011;2865;53.114;9.130;2023-07-02T14:26:30;8.20;;;3.33;;
5684;SDS011;2865;53.114;9.130;2023-07-02T14:28:55;7.30;;;2.77;;
5684;SDS011;2865;53.114;9.130;2023-07-02T14:31:20;7.10;;;3.17;;
5684;SDS011;2865;53.114;9.130;2023-07-02T14:33:46;6.40;;;3.10;;
5684;SDS011;2865;53.114;9.130;2023-07-02T14:36:11;6.17;;;2.93;;
5684;SDS011;2865;53.114;9.130;2023-07-02T14:38:37;7.67;;;2.90;;
5684;SDS011;2865;53.114;9.130;2023-07-02T14:41:02;7.50;;;2.70;;
5684;SDS011;2865;53.114;9.130;2023-07-02T14:43:28;6.83;;;3.10;;
5684;SDS011;2865;53.114;9.130;2023-07-02T14:45:53;7.10;;;2.83;;
5684;SDS011;2865;53.114;9.130;2023-07-02T14:48:18;8.13;;;3.30;;
5684;SDS011;2865;53.114;9.130;2023-07-02T14:50:44;6.53;;;3.30;;
5684;SDS011;2865;53.114;9.130;2023-07-02T14:53:09;7.77;;;3.00;;
5684;SDS011;2865;53.114;9.130;2023-07-02T14:55:34;5.40;;;2.97;;
5684;SDS011;2865;53.114;9.130;2023-07-02T14:58:00;11.43;;;3.63;;
5684;SDS011;2865;53.114;9.130;2023-07-02T15:00:25;5.33;;;2.70;;
5684;SDS011;2865;53.114;9.130;2023-07-02T15:02:51;5.10;;;2.57;;
5684;SDS011;2865;53.114;9.130;2023-07-02T15:05:17;5.63;;;2.60;;